Terminal Aerodrome Forecast
Issued by NWS

Current Version | Previous Version | Text Only | Print | Product List | Glossary Off
Versions: 1 2 3 4 5 6 7 8 9 10 11 12 13 14 15 16 17 18 19 20 21 22 23 24 25 26 27 28 29 30 31 32 33 34 35 36 37 38 39 40 41 42 43 44 45 46 47 48 49

000
FTUS41 KRNK 280345 AAD
TAFLWB
TAF AMD
KLWB 280345Z 2804/2824 00000KT 4SM BR VCSH SCT060 OVC090
      TEMPO 2804/2806 3SM BR SCT007 BKN040
     FM280900 00000KT 4SM SHRA BR VCSH OVC005
     FM281600 18003KT P6SM OVC015
     FM282100 25004KT P6SM -SHRA OVC025=

USA.gov is the U.S. government's official web portal to all federal, state and local government web resources and services.